Nanaimo Airport, British Columbia

Past 24 Hour Conditions

Date / Time
(PST)
Conditions Temp
(°C)
Humidity
(%)
Dew Point
(°C)
Wind
(km/h)
Pressure
(kPa)
Visibility
(km)
27 November 2014
11:00 Light Rainshower 14   81 11 SW 15 gust 31 100.4 16
10:00 Mostly Cloudy 13 86 11 SE 8 100.5 24
9:00 Light Rainshower 11 94 11 ENE 7 100.5 24
8:00 Light Rainshower 11 92 10 SSE 37 100.5 24
7:00 Mostly Cloudy 12 94 11 SSE 28 100.5 24
6:00 Light Rain 12 94 11 SSE 23 100.5 24
5:00 N/A 11 96 11 SSE 14 100.6 N/A
4:00 N/A 11 96 11 SE 10 100.6 N/A
3:00 N/A 11 97 11 SSE 5 100.6 N/A
2:00 N/A 11 96 11 SSW 10 100.6 N/A
1:00 N/A 11 95 11 NW 5 100.6 N/A
00:00 N/A 11 97 11 SE 10 100.6 N/A
26 November 2014
23:00 N/A 12 93 10 S 9 100.5 N/A
22:00 N/A 11 94 10 ESE 28 gust 46 100.6 N/A
21:00 Light Rain 12 92 10 S 11 100.8 16
20:00 Light Rain 12 92 11 ESE 16 gust 30 100.8 16
19:00 Light Rain 12 93 11 SSE 20 gust 37 100.9 16
18:00 Light Rain 11 95 11 SSE 18 gust 28 101.1 16
17:00 Light Drizzle 9 99 9 N 2 101.2 13
16:00 Mist 8 98 8 SSE 3 101.3 2
15:00 Mist 9 98 9 SSE 5 101.4 2
14:00 Mist 8 99 8 S 7 101.5 2
13:00 Mist 8 99 8 SSE 4 101.6 2
12:00 Light Drizzle 7   99 7 SSW 6 101.7 2
11:00 Mist 7   99 7 W 4 101.8 1
N/A Not available
↑ Highest temperature
↓ Lowest temperature

If you require additional historical weather information, please visit Climate Data Online.

Date modified: